Time,TemperatureF,DewpointF,PressureIn,WindDirection,WindDirectionDegrees,WindSpeedMPH,WindSpeedGustMPH,Humidity,HourlyPrecipIn,Conditions,Clouds,dailyrainin,SoftwareType,DateUTC
2013-02-05 00:00:00,36.2,32.7,30.01,NW,309,19.1,20.6,87,0.00,,,0.00,VWS V13.01,2013-02-05 06:00:00,
2013-02-05 00:01:00,36.2,32.7,30.02,NW,315,18.0,19.1,87,0.00,,,0.00,VWS V13.01,2013-02-05 06:01:00,
2013-02-05 00:02:00,36.1,32.6,30.02,NW,319,16.8,18.1,87,0.00,,,0.00,VWS V13.01,2013-02-05 06:02:00,
2013-02-05 00:03:00,36.3,32.8,30.02,NW,312,10.5,14.5,87,0.00,,,0.00,VWS V13.01,2013-02-05 06:03:00,
2013-02-05 00:04:00,23.1,22.1,30.00,NNE,20,0.0,0.0,96,0.00,,,0.00,VWS V13.01,2013-02-05 06:04:00,
2013-02-05 00:05:00,36.1,32.6,30.02,NW,319,11.4,13.9,87,0.00,,,0.00,VWS V13.01,2013-02-05 06:05:00,
2013-02-05 00:06:00,36.5,33.1,30.02,NW,322,8.0,12.6,87,0.00,,,0.00,VWS V13.01,2013-02-05 06:06:00,
2013-02-05 00:07:00,36.1,32.7,30.02,NW,315,8.9,9.5,87,0.00,,,0.00,VWS V13.01,2013-02-05 06:07:00,
2013-02-05 00:08:00,36.5,33.1,30.02,NW,316,7.5,8.9,87,0.00,,,0.00,VWS V13.01,2013-02-05 06:08:00,
2013-02-05 00:09:00,22.8,21.8,30.00,NNE,20,0.0,0.0,96,0.00,,,0.00,VWS V13.01,2013-02-05 06:09:00,
2013-02-05 00:10:00,36.2,32.8,30.02,NNW,328,9.1,13.5,87,0.00,,,0.00,VWS V13.01,2013-02-05 06:10:00,
2013-02-05 00:11:00,36.1,32.7,30.02,NNW,335,10.3,10.3,87,0.00,,,0.00,VWS V13.01,2013-02-05 06:11:00,
2013-02-05 00:12:00,36.2,32.7,30.02,NW,311,11.2,12.3,87,0.00,,,0.00,VWS V13.01,2013-02-05 06:12:00,
2013-02-05 00:13:00,36.1,32.6,30.02,NW,305,13.4,15.3,87,0.00,,,0.00,VWS V13.01,2013-02-05 06:13:00,
2013-02-05 00:14:00,22.9,21.9,30.00,NNE,20,0.0,0.0,96,0.00,,,0.00,VWS V13.01,2013-02-05 06:14:00,
2013-02-05 00:15:00,36.2,32.5,30.03,NW,316,9.1,14.5,86,0.00,,,0.00,VWS V13.01,2013-02-05 06:15:00,
2013-02-05 00:16:00,36.3,32.6,30.03,NW,325,10.8,12.8,86,0.00,,,0.00,VWS V13.01,2013-02-05 06:16:00,
2013-02-05 00:17:00,36.2,32.4,30.03,NNW,335,12.7,13.7,86,0.00,,,0.00,VWS V13.01,2013-02-05 06:17:00,
2013-02-05 00:18:00,36.2,32.4,30.03,NNW,346,5.7,14.1,86,0.00,,,0.00,VWS V13.01,2013-02-05 06:18:00,
2013-02-05 00:19:00,23.0,22.1,29.99,NNE,20,0.0,0.0,96,0.00,,,0.00,VWS V13.01,2013-02-05 06:19:00,
2013-02-05 00:20:00,36.0,32.1,30.03,NW,319,15.1,15.1,86,0.00,,,0.00,VWS V13.01,2013-02-05 06:20:00,
2013-02-05 00:21:00,36.3,32.4,30.03,NW,316,13.2,15.4,86,0.00,,,0.00,VWS V13.01,2013-02-05 06:21:00,
2013-02-05 00:22:00,35.8,31.9,30.03,NNW,346,11.2,14.6,86,0.00,,,0.00,VWS V13.01,2013-02-05 06:22:00,
2013-02-05 00:23:00,36.4,32.5,30.03,NW,326,8.9,14.9,86,0.00,,,0.00,VWS V13.01,2013-02-05 06:23:00,
2013-02-05 00:24:00,22.8,21.8,29.99,NNE,20,0.0,0.0,96,0.00,,,0.00,VWS V13.01,2013-02-05 06:24:00,
2013-02-05 00:25:00,36.2,32.4,30.03,NW,321,8.1,14.8,86,0.00,,,0.00,VWS V13.01,2013-02-05 06:25:00,
2013-02-05 00:26:00,36.0,32.1,30.03,NW,305,15.2,15.2,86,0.00,,,0.00,VWS V13.01,2013-02-05 06:26:00,
2013-02-05 00:27:00,36.3,32.4,30.03,NNW,336,15.7,16.9,86,0.00,,,0.00,VWS V13.01,2013-02-05 06:27:00,
2013-02-05 00:28:00,36.2,32.1,30.03,NNW,333,16.4,17.2,85,0.00,,,0.00,VWS V13.01,2013-02-05 06:28:00,
2013-02-05 00:29:00,36.1,31.9,30.03,NW,318,11.4,15.8,84,0.00,,,0.00,VWS V13.01,2013-02-05 06:29:00,
2013-02-05 00:30:00,22.6,21.6,29.98,NNE,20,0.0,0.0,96,0.00,,,0.00,VWS V13.01,2013-02-05 06:30:00,
2013-02-05 00:31:00,36.1,32.0,30.03,NW,318,13.2,19.7,85,0.00,,,0.00,VWS V13.01,2013-02-05 06:31:00,
2013-02-05 00:32:00,36.2,32.0,30.03,NNW,333,11.8,17.2,85,0.00,,,0.00,VWS V13.01,2013-02-05 06:32:00,
2013-02-05 00:33:00,35.9,31.6,30.03,North,352,12.7,12.9,84,0.00,,,0.00,VWS V13.01,2013-02-05 06:33:00,
2013-02-05 00:34:00,22.9,22.0,29.98,NNE,20,0.0,0.0,96,0.00,,,0.00,VWS V13.01,2013-02-05 06:34:00,
2013-02-05 00:35:00,36.2,32.0,30.03,NNW,345,8.2,12.4,85,0.00,,,0.00,VWS V13.01,2013-02-05 06:35:00,
2013-02-05 00:36:00,35.9,31.7,30.03,North,10,10.0,13.9,84,0.00,,,0.00,VWS V13.01,2013-02-05 06:36:00,
2013-02-05 00:37:00,36.1,32.0,30.03,North,354,7.9,10.3,85,0.00,,,0.00,VWS V13.01,2013-02-05 06:37:00,
2013-02-05 00:38:00,36.0,31.8,30.04,NW,326,7.8,16.0,84,0.00,,,0.00,VWS V13.01,2013-02-05 06:38:00,
2013-02-05 00:39:00,22.7,21.7,29.98,NNE,20,0.0,0.0,96,0.00,,,0.00,VWS V13.01,2013-02-05 06:39:00,
2013-02-05 00:40:00,35.6,31.2,30.04,NW,314,15.5,24.5,84,0.00,,,0.00,VWS V13.01,2013-02-05 06:40:00,
2013-02-05 00:41:00,35.8,31.4,30.04,NNW,330,16.0,17.6,84,0.00,,,0.00,VWS V13.01,2013-02-05 06:41:00,
2013-02-05 00:42:00,35.8,31.4,30.04,NW,315,11.6,20.6,84,0.00,,,0.00,VWS V13.01,2013-02-05 06:42:00,
2013-02-05 00:43:00,36.1,31.8,30.04,NNW,343,8.2,10.3,84,0.00,,,0.00,VWS V13.01,2013-02-05 06:43:00,
2013-02-05 00:44:00,22.5,21.6,29.99,NNE,20,0.0,0.0,96,0.00,,,0.00,VWS V13.01,2013-02-05 06:44:00,
2013-02-05 00:45:00,35.9,31.6,30.04,NW,325,13.5,18.0,84,0.00,,,0.00,VWS V13.01,2013-02-05 06:45:00,
2013-02-05 00:46:00,35.9,31.4,30.04,NNW,342,9.8,14.4,84,0.00,,,0.00,VWS V13.01,2013-02-05 06:46:00,
2013-02-05 00:47:00,36.0,31.6,30.05,NW,318,8.1,13.4,84,0.00,,,0.00,VWS V13.01,2013-02-05 06:47:00,
2013-02-05 00:48:00,35.6,31.2,30.05,NW,325,10.1,14.0,84,0.00,,,0.00,VWS V13.01,2013-02-05 06:48:00,
2013-02-05 00:49:00,22.5,21.6,29.99,NNE,20,0.0,0.0,96,0.00,,,0.00,VWS V13.01,2013-02-05 06:49:00,
2013-02-05 00:50:00,35.9,31.4,30.05,NNW,335,5.9,9.9,84,0.00,,,0.00,VWS V13.01,2013-02-05 06:50:00,
2013-02-05 00:51:00,36.0,31.6,30.05,NNW,345,12.9,14.9,84,0.00,,,0.00,VWS V13.01,2013-02-05 06:51:00,
2013-02-05 00:52:00,35.8,31.4,30.05,NNW,330,11.0,12.6,84,0.00,,,0.00,VWS V13.01,2013-02-05 06:52:00,
2013-02-05 00:53:00,35.8,31.5,30.05,NNW,338,10.9,12.6,84,0.00,,,0.00,VWS V13.01,2013-02-05 06:53:00,
2013-02-05 00:54:00,35.7,31.4,30.05,NW,318,9.4,11.5,84,0.00,,,0.00,VWS V13.01,2013-02-05 06:54:00,
2013-02-05 00:55:00,22.7,21.8,29.99,NNE,20,0.0,0.0,96,0.00,,,0.00,VWS V13.01,2013-02-05 06:55:00,
2013-02-05 00:56:00,35.8,31.5,30.05,NW,304,10.9,10.9,84,0.00,,,0.00,VWS V13.01,2013-02-05 06:56:00,
2013-02-05 00:57:00,35.9,31.5,30.05,North,349,8.0,16.7,84,0.00,,,0.00,VWS V13.01,2013-02-05 06:57:00,
2013-02-05 00:58:00,35.8,31.4,30.05,NNW,328,7.3,12.3,84,0.00,,,0.00,VWS V13.01,2013-02-05 06:58:00,
2013-02-05 00:59:00,35.9,31.5,30.05,NNW,333,9.5,12.2,84,0.00,,,0.00,VWS V13.01,2013-02-05 06:59:00,
2013-02-05 01:00:00,22.4,21.5,29.99,NNE,20,0.0,0.0,96,0.00,,,0.00,VWS V13.01,2013-02-05 07:00:00,
2013-02-05 01:01:00,35.7,31.5,30.05,NNW,333,13.0,13.0,84,0.00,,,0.00,VWS V13.01,2013-02-05 07:01:00,
2013-02-05 01:02:00,35.8,31.2,30.05,NW,308,13.2,15.8,83,0.00,,,0.00,VWS V13.01,2013-02-05 07:02:00,
2013-02-05 01:03:00,35.6,30.9,30.05,NNW,343,14.9,19.6,83,0.00,,,0.00,VWS V13.01,2013-02-05 07:03:00,
2013-02-05 01:04:00,35.7,31.0,30.05,NW,322,9.5,13.8,83,0.00,,,0.00,VWS V13.01,2013-02-05 07:04:00,
2013-02-05 01:05:00,22.1,21.2,29.98,NNE,20,0.0,0.0,96,0.00,,,0.00,VWS V13.01,2013-02-05 07:05:00,
2013-02-05 01:06:00,35.6,31.0,30.05,NW,322,9.9,13.9,83,0.00,,,0.00,VWS V13.01,2013-02-05 07:06:00,
2013-02-05 01:07:00,35.5,30.4,30.05,NNW,340,10.8,17.6,82,0.00,,,0.00,VWS V13.01,2013-02-05 07:07:00,
2013-02-05 01:08:00,35.5,30.6,30.05,NW,312,7.8,12.2,82,0.00,,,0.00,VWS V13.01,2013-02-05 07:08:00,
2013-02-05 01:09:00,35.6,30.8,30.05,NW,311,13.4,16.2,82,0.00,,,0.00,VWS V13.01,2013-02-05 07:09:00,
2013-02-05 01:10:00,22.3,21.4,29.98,NNE,20,0.0,0.0,96,0.00,,,0.00,VWS V13.01,2013-02-05 07:10:00,
2013-02-05 01:11:00,35.7,30.9,30.06,NW,307,11.7,13.1,82,0.00,,,0.00,VWS V13.01,2013-02-05 07:11:00,
2013-02-05 01:12:00,35.5,30.8,30.06,NW,307,13.5,15.2,83,0.00,,,0.00,VWS V13.01,2013-02-05 07:12:00,
2013-02-05 01:13:00,35.7,31.0,30.06,NW,322,10.3,15.2,83,0.00,,,0.00,VWS V13.01,2013-02-05 07:13:00,
2013-02-05 01:14:00,35.6,30.9,30.06,NW,323,9.1,13.2,83,0.00,,,0.00,VWS V13.01,2013-02-05 07:14:00,
2013-02-05 01:15:00,22.2,21.3,29.98,NNE,20,0.0,0.0,96,0.00,,,0.00,VWS V13.01,2013-02-05 07:15:00,
2013-02-05 01:16:00,35.6,30.9,30.06,NNW,329,13.5,14.4,83,0.00,,,0.00,VWS V13.01,2013-02-05 07:16:00,
2013-02-05 01:17:00,35.7,31.0,30.06,NW,322,12.4,13.5,83,0.00,,,0.00,VWS V13.01,2013-02-05 07:17:00,
2013-02-05 01:18:00,35.5,30.8,30.06,NW,323,8.5,13.2,83,0.00,,,0.00,VWS V13.01,2013-02-05 07:18:00,
2013-02-05 01:19:00,21.9,21.0,29.98,NNE,20,0.0,0.0,96,0.00,,,0.00,VWS V13.01,2013-02-05 07:19:00,
2013-02-05 01:20:00,35.6,30.9,30.06,NW,321,12.1,14.4,83,0.00,,,0.00,VWS V13.01,2013-02-05 07:20:00,
2013-02-05 01:21:00,35.4,30.7,30.06,NW,315,13.1,14.9,83,0.00,,,0.00,VWS V13.01,2013-02-05 07:21:00,
2013-02-05 01:22:00,35.4,30.8,30.06,NW,312,12.0,12.4,83,0.00,,,0.00,VWS V13.01,2013-02-05 07:22:00,
2013-02-05 01:23:00,35.4,30.8,30.06,NW,307,9.4,12.7,83,0.00,,,0.00,VWS V13.01,2013-02-05 07:23:00,
2013-02-05 01:24:00,21.7,20.9,29.99,NNE,20,0.0,0.0,96,0.00,,,0.00,VWS V13.01,2013-02-05 07:24:00,
2013-02-05 01:25:00,35.5,30.9,30.06,NW,309,10.1,12.0,83,0.00,,,0.00,VWS V13.01,2013-02-05 07:25:00,
2013-02-05 01:26:00,35.5,30.9,30.06,NW,316,10.0,12.7,83,0.00,,,0.00,VWS V13.01,2013-02-05 07:26:00,
2013-02-05 01:27:00,35.7,31.1,30.06,NW,311,13.3,13.6,83,0.00,,,0.00,VWS V13.01,2013-02-05 07:27:00,
2013-02-05 01:28:00,35.4,30.9,30.06,NW,319,12.1,12.6,83,0.00,,,0.00,VWS V13.01,2013-02-05 07:28:00,
2013-02-05 01:29:00,21.9,21.1,29.99,NNE,20,0.0,0.0,97,0.00,,,0.00,VWS V13.01,2013-02-05 07:29:00,
2013-02-05 01:30:00,35.4,30.8,30.06,NW,318,11.2,14.0,83,0.00,,,0.00,VWS V13.01,2013-02-05 07:30:00,
2013-02-05 01:31:00,35.4,30.9,30.06,NW,325,10.5,11.3,83,0.00,,,0.00,VWS V13.01,2013-02-05 07:31:00,
2013-02-05 01:32:00,35.5,30.9,30.06,NW,318,10.4,13.1,83,0.00,,,0.00,VWS V13.01,2013-02-05 07:32:00,
2013-02-05 01:33:00,35.5,31.0,30.07,NW,316,9.7,10.9,83,0.00,,,0.00,VWS V13.01,2013-02-05 07:33:00,
2013-02-05 01:34:00,21.7,20.9,29.99,NNE,20,0.0,0.0,97,0.00,,,0.00,VWS V13.01,2013-02-05 07:34:00,
2013-02-05 01:35:00,35.3,30.8,30.06,NNW,329,9.8,10.1,84,0.00,,,0.00,VWS V13.01,2013-02-05 07:35:00,
2013-02-05 01:36:00,35.4,30.9,30.07,NW,326,8.2,8.9,84,0.00,,,0.00,VWS V13.01,2013-02-05 07:36:00,
2013-02-05 01:37:00,35.5,31.0,30.07,NW,322,11.5,12.0,84,0.00,,,0.00,VWS V13.01,2013-02-05 07:37:00,
2013-02-05 01:38:00,35.6,31.0,30.06,NNW,329,8.0,11.4,83,0.00,,,0.00,VWS V13.01,2013-02-05 07:38:00,
2013-02-05 01:39:00,21.9,21.1,29.98,NNE,20,0.0,0.0,97,0.00,,,0.00,VWS V13.01,2013-02-05 07:39:00,
2013-02-05 01:40:00,35.5,30.9,30.07,NNW,335,8.7,9.6,83,0.00,,,0.00,VWS V13.01,2013-02-05 07:40:00,
2013-02-05 01:41:00,35.4,30.9,30.06,NNW,346,9.1,10.7,83,0.00,,,0.00,VWS V13.01,2013-02-05 07:41:00,
2013-02-05 01:42:00,35.4,30.6,30.07,NW,318,10.0,11.1,83,0.00,,,0.00,VWS V13.01,2013-02-05 07:42:00,
2013-02-05 01:43:00,35.3,30.6,30.07,NW,316,7.8,10.3,83,0.00,,,0.00,VWS V13.01,2013-02-05 07:43:00,
2013-02-05 01:44:00,21.5,20.8,29.98,NNE,20,0.0,0.0,97,0.00,,,0.00,VWS V13.01,2013-02-05 07:44:00,
2013-02-05 01:45:00,35.4,30.8,30.07,NW,321,5.7,7.9,83,0.00,,,0.00,VWS V13.01,2013-02-05 07:45:00,
2013-02-05 01:46:00,35.4,30.8,30.07,NW,309,8.6,8.9,83,0.00,,,0.00,VWS V13.01,2013-02-05 07:46:00,
2013-02-05 01:47:00,35.4,30.9,30.07,NW,311,9.3,10.6,83,0.00,,,0.00,VWS V13.01,2013-02-05 07:47:00,
2013-02-05 01:48:00,35.5,31.0,30.07,NNW,328,6.9,9.3,84,0.00,,,0.00,VWS V13.01,2013-02-05 07:48:00,
2013-02-05 01:49:00,21.5,20.9,29.99,NNE,20,0.0,0.0,97,0.00,,,0.00,VWS V13.01,2013-02-05 07:49:00,
2013-02-05 01:50:00,35.6,31.2,30.07,NW,305,8.2,8.4,84,0.00,,,0.00,VWS V13.01,2013-02-05 07:50:00,
2013-02-05 01:51:00,35.5,31.1,30.07,NW,309,8.3,8.3,84,0.00,,,0.00,VWS V13.01,2013-02-05 07:51:00,
2013-02-05 01:52:00,35.5,31.2,30.07,WNW,300,8.7,9.3,84,0.00,,,0.00,VWS V13.01,2013-02-05 07:52:00,
2013-02-05 01:53:00,35.8,31.5,30.07,NW,307,8.3,8.6,84,0.00,,,0.00,VWS V13.01,2013-02-05 07:53:00,
2013-02-05 01:54:00,21.5,20.9,29.98,ENE,77,2.0,5.3,97,0.00,,,0.00,VWS V13.01,2013-02-05 07:54:00,
2013-02-05 01:55:00,35.5,31.4,30.07,NW,309,6.2,7.5,85,0.00,,,0.00,VWS V13.01,2013-02-05 07:55:00,
2013-02-05 01:56:00,35.4,31.3,30.07,NW,318,6.3,6.8,85,0.00,,,0.00,VWS V13.01,2013-02-05 07:56:00,
2013-02-05 01:57:00,35.5,31.5,30.07,WNW,298,7.1,7.3,85,0.00,,,0.00,VWS V13.01,2013-02-05 07:57:00,
2013-02-05 01:58:00,35.5,31.5,30.07,WNW,297,6.4,6.8,85,0.00,,,0.00,VWS V13.01,2013-02-05 07:58:00,
2013-02-05 01:59:00,21.8,21.2,29.98,ENE,68,0.0,0.0,97,0.00,,,0.00,VWS V13.01,2013-02-05 07:59:00,
2013-02-05 02:00:00,35.5,31.5,30.07,NW,312,8.9,10.3,85,0.00,,,0.00,VWS V13.01,2013-02-05 08:00:00,
2013-02-05 02:01:00,35.4,31.4,30.07,NW,305,7.5,8.7,85,0.00,,,0.00,VWS V13.01,2013-02-05 08:01:00,
2013-02-05 02:02:00,35.4,31.4,30.07,NW,305,7.6,8.9,85,0.00,,,0.00,VWS V13.01,2013-02-05 08:02:00,
2013-02-05 02:03:00,35.4,31.4,30.07,WNW,300,7.3,8.9,85,0.00,,,0.00,VWS V13.01,2013-02-05 08:03:00,
2013-02-05 02:04:00,21.7,21.0,29.99,ENE,68,0.0,0.0,97,0.00,,,0.00,VWS V13.01,2013-02-05 08:04:00,
2013-02-05 02:05:00,35.3,31.3,30.07,NW,309,11.4,11.5,85,0.00,,,0.00,VWS V13.01,2013-02-05 08:05:00,
2013-02-05 02:06:00,35.4,31.4,30.07,NW,307,9.8,9.8,85,0.00,,,0.00,VWS V13.01,2013-02-05 08:06:00,
2013-02-05 02:07:00,35.3,31.3,30.07,NW,314,9.7,10.4,85,0.00,,,0.00,VWS V13.01,2013-02-05 08:07:00,
2013-02-05 02:08:00,35.5,31.5,30.07,NW,316,8.8,9.9,85,0.00,,,0.00,VWS V13.01,2013-02-05 08:08:00,
2013-02-05 02:09:00,21.9,21.2,29.99,ENE,68,0.0,0.0,97,0.00,,,0.00,VWS V13.01,2013-02-05 08:09:00,
2013-02-05 02:10:00,35.3,31.4,30.07,NW,307,11.4,12.1,85,0.00,,,0.00,VWS V13.01,2013-02-05 08:10:00,
2013-02-05 02:11:00,35.3,31.4,30.07,NW,308,11.2,12.9,85,0.00,,,0.00,VWS V13.01,2013-02-05 08:11:00,
2013-02-05 02:12:00,35.3,31.4,30.07,NW,307,9.9,11.7,85,0.00,,,0.00,VWS V13.01,2013-02-05 08:12:00,
2013-02-05 02:13:00,35.3,31.4,30.07,NW,312,9.1,10.6,86,0.00,,,0.00,VWS V13.01,2013-02-05 08:13:00,
2013-02-05 02:14:00,21.8,21.1,30.00,ENE,68,0.0,0.0,97,0.00,,,0.00,VWS V13.01,2013-02-05 08:14:00,
2013-02-05 02:15:00,35.2,31.3,30.07,WNW,294,10.1,11.3,86,0.00,,,0.00,VWS V13.01,2013-02-05 08:15:00,
2013-02-05 02:16:00,35.3,31.5,30.07,NW,312,9.9,10.7,86,0.00,,,0.00,VWS V13.01,2013-02-05 08:16:00,
2013-02-05 02:17:00,35.4,31.6,30.07,WNW,297,8.7,10.8,86,0.00,,,0.00,VWS V13.01,2013-02-05 08:17:00,
2013-02-05 02:18:00,35.2,31.4,30.07,West,281,7.8,9.6,86,0.00,,,0.00,VWS V13.01,2013-02-05 08:18:00,
2013-02-05 02:19:00,22.0,21.3,29.99,ENE,68,0.0,0.0,97,0.00,,,0.00,VWS V13.01,2013-02-05 08:19:00,
2013-02-05 02:20:00,35.2,31.4,30.07,WNW,298,12.1,12.1,86,0.00,,,0.00,VWS V13.01,2013-02-05 08:20:00,
2013-02-05 02:21:00,35.3,31.5,30.07,NW,309,10.4,11.1,86,0.00,,,0.00,VWS V13.01,2013-02-05 08:21:00,
2013-02-05 02:22:00,35.3,31.5,30.07,NW,309,9.3,11.6,86,0.00,,,0.00,VWS V13.01,2013-02-05 08:22:00,
2013-02-05 02:23:00,35.2,31.4,30.07,WNW,302,9.3,9.7,86,0.00,,,0.00,VWS V13.01,2013-02-05 08:23:00,
2013-02-05 02:24:00,22.1,21.4,29.99,ENE,68,0.0,0.0,97,0.00,,,0.00,VWS V13.01,2013-02-05 08:24:00,
2013-02-05 02:25:00,35.3,31.6,30.07,WNW,294,8.4,9.1,86,0.00,,,0.00,VWS V13.01,2013-02-05 08:25:00,
2013-02-05 02:26:00,35.2,31.6,30.07,WNW,294,10.3,10.3,87,0.00,,,0.00,VWS V13.01,2013-02-05 08:26:00,
2013-02-05 02:27:00,35.3,31.8,30.07,WNW,297,8.3,9.0,87,0.00,,,0.00,VWS V13.01,2013-02-05 08:27:00,
2013-02-05 02:28:00,35.4,31.9,30.08,WNW,297,9.4,10.8,87,0.00,,,0.00,VWS V13.01,2013-02-05 08:28:00,
2013-02-05 02:29:00,22.4,21.7,29.99,ENE,68,0.0,0.0,97,0.00,,,0.00,VWS V13.01,2013-02-05 08:29:00,
2013-02-05 02:30:00,35.4,31.7,30.08,WNW,285,7.8,10.1,86,0.00,,,0.00,VWS V13.01,2013-02-05 08:30:00,
2013-02-05 02:31:00,35.4,31.8,30.08,WNW,284,8.5,8.8,86,0.00,,,0.00,VWS V13.01,2013-02-05 08:31:00,
2013-02-05 02:32:00,35.4,31.8,30.08,NW,304,9.8,10.7,86,0.00,,,0.00,VWS V13.01,2013-02-05 08:32:00,
2013-02-05 02:33:00,35.3,31.6,30.08,WNW,292,8.2,9.4,86,0.00,,,0.00,VWS V13.01,2013-02-05 08:33:00,
2013-02-05 02:34:00,22.4,21.7,29.99,ENE,68,0.0,0.0,97,0.00,,,0.00,VWS V13.01,2013-02-05 08:34:00,
2013-02-05 02:35:00,35.1,31.5,30.08,WNW,291,8.3,8.5,86,0.00,,,0.00,VWS V13.01,2013-02-05 08:35:00,
2013-02-05 02:36:00,35.2,31.6,30.08,WNW,297,8.2,8.6,87,0.00,,,0.00,VWS V13.01,2013-02-05 08:36:00,
2013-02-05 02:37:00,35.2,31.6,30.08,WNW,298,7.2,8.0,87,0.00,,,0.00,VWS V13.01,2013-02-05 08:37:00,
2013-02-05 02:38:00,35.3,31.8,30.08,WNW,295,7.6,8.7,87,0.00,,,0.00,VWS V13.01,2013-02-05 08:38:00,
2013-02-05 02:39:00,22.6,21.9,29.99,ENE,68,0.0,0.0,97,0.00,,,0.00,VWS V13.01,2013-02-05 08:39:00,
2013-02-05 02:40:00,35.3,31.8,30.08,WNW,290,7.5,8.0,87,0.00,,,0.00,VWS V13.01,2013-02-05 08:40:00,
2013-02-05 02:41:00,35.3,31.8,30.08,West,271,7.4,8.2,87,0.00,,,0.00,VWS V13.01,2013-02-05 08:41:00,
2013-02-05 02:42:00,35.3,31.9,30.08,West,278,7.5,7.8,87,0.00,,,0.00,VWS V13.01,2013-02-05 08:42:00,
2013-02-05 02:43:00,35.3,31.9,30.08,WNW,290,6.2,7.2,87,0.00,,,0.00,VWS V13.01,2013-02-05 08:43:00,
2013-02-05 02:44:00,22.5,21.8,29.99,ENE,68,0.0,0.0,97,0.00,,,0.00,VWS V13.01,2013-02-05 08:44:00,
2013-02-05 02:45:00,35.4,32.0,30.08,WNW,295,6.2,6.3,87,0.00,,,0.00,VWS V13.01,2013-02-05 08:45:00,
2013-02-05 02:46:00,35.0,31.7,30.08,West,281,6.3,6.5,88,0.00,,,0.00,VWS V13.01,2013-02-05 08:46:00,
2013-02-05 02:47:00,35.3,32.0,30.08,West,259,6.4,8.3,88,0.00,,,0.00,VWS V13.01,2013-02-05 08:47:00,
2013-02-05 02:48:00,35.2,31.9,30.08,West,270,5.9,8.9,88,0.00,,,0.00,VWS V13.01,2013-02-05 08:48:00,
2013-02-05 02:49:00,22.3,21.7,29.98,ENE,68,0.0,0.0,98,0.00,,,0.00,VWS V13.01,2013-02-05 08:49:00,
2013-02-05 02:50:00,35.2,31.8,30.08,WNW,287,6.2,7.0,87,0.00,,,0.00,VWS V13.01,2013-02-05 08:50:00,
2013-02-05 02:51:00,35.1,31.9,30.08,WNW,288,6.0,7.5,88,0.00,,,0.00,VWS V13.01,2013-02-05 08:51:00,
2013-02-05 02:52:00,35.1,31.9,30.08,West,278,5.6,6.2,88,0.00,,,0.00,VWS V13.01,2013-02-05 08:52:00,
2013-02-05 02:53:00,35.2,32.1,30.08,WNW,285,6.3,6.3,88,0.00,,,0.00,VWS V13.01,2013-02-05 08:53:00,
2013-02-05 02:54:00,22.6,22.0,29.97,NE,51,0.0,0.0,98,0.00,,,0.00,VWS V13.01,2013-02-05 08:54:00,
2013-02-05 02:55:00,35.1,32.2,30.08,WNW,291,6.2,6.4,89,0.00,,,0.00,VWS V13.01,2013-02-05 08:55:00,
2013-02-05 02:56:00,35.0,32.1,30.08,WNW,285,5.8,6.3,89,0.00,,,0.00,VWS V13.01,2013-02-05 08:56:00,
2013-02-05 02:57:00,35.1,32.3,30.08,WNW,283,2.0,5.0,89,0.00,,,0.00,VWS V13.01,2013-02-05 08:57:00,
2013-02-05 02:58:00,35.2,32.4,30.08,WNW,301,4.4,5.3,90,0.00,,,0.00,VWS V13.01,2013-02-05 08:58:00,
2013-02-05 02:59:00,22.5,22.0,29.97,NE,51,0.0,0.0,98,0.00,,,0.00,VWS V13.01,2013-02-05 08:59:00,
2013-02-05 03:00:00,35.0,32.2,30.08,West,264,4.3,5.7,89,0.00,,,0.00,VWS V13.01,2013-02-05 09:00:00,
2013-02-05 03:01:00,35.1,32.4,30.08,West,276,4.4,5.2,90,0.00,,,0.00,VWS V13.01,2013-02-05 09:01:00,
2013-02-05 03:02:00,35.1,32.4,30.08,West,274,4.7,5.3,90,0.00,,,0.00,VWS V13.01,2013-02-05 09:02:00,
2013-02-05 03:03:00,35.1,32.4,30.08,WNW,291,4.4,5.5,90,0.00,,,0.00,VWS V13.01,2013-02-05 09:03:00,
2013-02-05 03:04:00,22.5,22.0,29.97,NE,51,0.0,0.0,98,0.00,,,0.00,VWS V13.01,2013-02-05 09:04:00,
2013-02-05 03:05:00,34.9,32.2,30.08,West,273,5.4,6.2,90,0.00,,,0.00,VWS V13.01,2013-02-05 09:05:00,
2013-02-05 03:06:00,34.8,32.1,30.08,West,276,5.9,5.9,90,0.00,,,0.00,VWS V13.01,2013-02-05 09:06:00,
2013-02-05 03:07:00,34.8,32.1,30.08,West,276,5.3,5.9,90,0.00,,,0.00,VWS V13.01,2013-02-05 09:07:00,
2013-02-05 03:08:00,35.0,32.3,30.09,West,274,4.5,5.1,90,0.00,,,0.00,VWS V13.01,2013-02-05 09:08:00,
2013-02-05 03:09:00,22.6,22.0,29.97,NE,51,0.0,0.0,98,0.00,,,0.00,VWS V13.01,2013-02-05 09:09:00,
2013-02-05 03:10:00,35.2,32.6,30.09,West,276,5.1,5.2,90,0.00,,,0.00,VWS V13.01,2013-02-05 09:10:00,
2013-02-05 03:11:00,35.0,32.4,30.09,West,276,5.0,5.7,90,0.00,,,0.00,VWS V13.01,2013-02-05 09:11:00,
2013-02-05 03:12:00,34.9,32.3,30.09,West,267,4.9,5.2,90,0.00,,,0.00,VWS V13.01,2013-02-05 09:12:00,
2013-02-05 03:13:00,34.7,32.1,30.09,West,271,6.0,6.5,90,0.00,,,0.00,VWS V13.01,2013-02-05 09:13:00,
2013-02-05 03:14:00,22.8,22.2,29.97,NE,51,0.0,0.0,98,0.00,,,0.00,VWS V13.01,2013-02-05 09:14:00,
2013-02-05 03:15:00,34.7,32.1,30.09,West,277,5.2,6.1,90,0.00,,,0.00,VWS V13.01,2013-02-05 09:15:00,
2013-02-05 03:16:00,34.7,32.2,30.09,WNW,301,6.3,6.5,90,0.00,,,0.00,VWS V13.01,2013-02-05 09:16:00,
2013-02-05 03:17:00,34.8,32.3,30.09,NW,308,6.1,6.8,90,0.00,,,0.00,VWS V13.01,2013-02-05 09:17:00,
2013-02-05 03:18:00,35.0,32.5,30.09,NW,314,5.0,5.7,90,0.00,,,0.00,VWS V13.01,2013-02-05 09:18:00,
2013-02-05 03:19:00,22.9,22.3,29.97,NE,51,0.0,0.0,97,0.00,,,0.00,VWS V13.01,2013-02-05 09:19:00,
2013-02-05 03:20:00,34.8,32.3,30.09,WNW,302,5.2,5.6,90,0.00,,,0.00,VWS V13.01,2013-02-05 09:20:00,
2013-02-05 03:21:00,34.9,32.5,30.09,WNW,294,5.5,5.9,91,0.00,,,0.00,VWS V13.01,2013-02-05 09:21:00,
2013-02-05 03:22:00,34.9,32.5,30.09,WNW,287,5.7,6.4,91,0.00,,,0.00,VWS V13.01,2013-02-05 09:22:00,
2013-02-05 03:23:00,35.0,32.6,30.09,West,280,6.0,7.5,91,0.00,,,0.00,VWS V13.01,2013-02-05 09:23:00,
2013-02-05 03:24:00,23.1,22.5,29.96,NE,51,0.0,0.0,98,0.00,,,0.00,VWS V13.01,2013-02-05 09:24:00,
2013-02-05 03:25:00,34.9,32.6,30.09,West,274,6.5,7.0,91,0.00,,,0.00,VWS V13.01,2013-02-05 09:25:00,
2013-02-05 03:26:00,35.0,32.8,30.09,WNW,288,6.3,8.7,92,0.00,,,0.00,VWS V13.01,2013-02-05 09:26:00,
2013-02-05 03:27:00,34.9,32.7,30.09,WNW,294,8.4,8.8,92,0.00,,,0.00,VWS V13.01,2013-02-05 09:27:00,
2013-02-05 03:28:00,34.8,32.6,30.09,WNW,290,8.0,8.5,92,0.00,,,0.00,VWS V13.01,2013-02-05 09:28:00,
2013-02-05 03:29:00,23.0,22.4,29.96,NE,51,0.0,0.0,98,0.00,,,0.00,VWS V13.01,2013-02-05 09:29:00,
2013-02-05 03:30:00,34.9,32.6,30.09,West,276,6.3,7.8,91,0.00,,,0.00,VWS V13.01,2013-02-05 09:30:00,
2013-02-05 03:31:00,34.7,32.4,30.09,West,278,6.8,8.5,91,0.00,,,0.00,VWS V13.01,2013-02-05 09:31:00,
2013-02-05 03:32:00,34.8,32.5,30.09,WNW,287,7.5,7.8,91,0.00,,,0.00,VWS V13.01,2013-02-05 09:32:00,
2013-02-05 03:33:00,34.9,32.6,30.09,WNW,290,7.8,8.5,91,0.00,,,0.00,VWS V13.01,2013-02-05 09:33:00,
2013-02-05 03:34:00,23.4,22.8,29.96,NE,51,0.0,0.0,98,0.00,,,0.00,VWS V13.01,2013-02-05 09:34:00,
2013-02-05 03:35:00,35.0,32.6,30.09,WNW,295,7.3,8.0,91,0.00,,,0.00,VWS V13.01,2013-02-05 09:35:00,
2013-02-05 03:36:00,35.0,32.6,30.10,WNW,295,7.0,7.8,91,0.00,,,0.00,VWS V13.01,2013-02-05 09:36:00,
2013-02-05 03:37:00,34.9,32.5,30.10,WNW,298,6.6,7.9,91,0.00,,,0.00,VWS V13.01,2013-02-05 09:37:00,
2013-02-05 03:38:00,35.1,32.7,30.10,WNW,298,6.9,7.7,91,0.00,,,0.00,VWS V13.01,2013-02-05 09:38:00,
2013-02-05 03:39:00,23.6,23.0,29.95,NE,51,0.0,0.0,98,0.00,,,0.00,VWS V13.01,2013-02-05 09:39:00,
2013-02-05 03:40:00,34.8,32.3,30.10,NW,307,7.5,8.5,91,0.00,,,0.00,VWS V13.01,2013-02-05 09:40:00,
2013-02-05 03:41:00,35.0,32.5,30.10,WNW,300,6.2,7.1,90,0.00,,,0.00,VWS V13.01,2013-02-05 09:41:00,
2013-02-05 03:42:00,35.1,32.6,30.10,WNW,297,5.6,7.8,90,0.00,,,0.00,VWS V13.01,2013-02-05 09:42:00,
2013-02-05 03:43:00,35.1,32.6,30.10,NW,316,8.5,8.5,90,0.00,,,0.00,VWS V13.01,2013-02-05 09:43:00,
2013-02-05 03:44:00,23.7,23.1,29.95,NE,51,0.0,0.0,98,0.00,,,0.00,VWS V13.01,2013-02-05 09:44:00,
2013-02-05 03:45:00,34.9,32.3,30.10,WNW,300,10.3,13.2,90,0.00,,,0.00,VWS V13.01,2013-02-05 09:45:00,
2013-02-05 03:46:00,35.0,32.4,30.10,NW,311,11.8,13.0,90,0.00,,,0.00,VWS V13.01,2013-02-05 09:46:00,
2013-02-05 03:47:00,35.2,32.5,30.10,WNW,297,8.4,10.6,90,0.00,,,0.00,VWS V13.01,2013-02-05 09:47:00,
2013-02-05 03:48:00,35.0,32.3,30.10,NW,314,11.2,11.6,90,0.00,,,0.00,VWS V13.01,2013-02-05 09:48:00,
2013-02-05 03:49:00,23.9,23.3,29.95,NE,51,0.0,0.0,98,0.00,,,0.00,VWS V13.01,2013-02-05 09:49:00,
2013-02-05 03:50:00,35.1,32.2,30.10,NW,318,10.8,13.3,89,0.00,,,0.00,VWS V13.01,2013-02-05 09:50:00,
2013-02-05 03:51:00,35.0,32.2,30.10,WNW,302,9.1,11.2,89,0.00,,,0.00,VWS V13.01,2013-02-05 09:51:00,
2013-02-05 03:52:00,35.0,32.2,30.10,NW,315,10.5,11.8,89,0.00,,,0.00,VWS V13.01,2013-02-05 09:52:00,
2013-02-05 03:53:00,35.2,32.3,30.10,NW,307,12.6,13.7,89,0.00,,,0.00,VWS V13.01,2013-02-05 09:53:00,
2013-02-05 03:54:00,24.3,23.8,29.95,NE,51,0.0,0.0,98,0.00,,,0.00,VWS V13.01,2013-02-05 09:54:00,
2013-02-05 03:55:00,35.3,32.3,30.10,NW,316,14.7,15.3,89,0.00,,,0.00,VWS V13.01,2013-02-05 09:55:00,
2013-02-05 03:56:00,35.1,31.9,30.10,WNW,302,15.1,16.7,88,0.00,,,0.00,VWS V13.01,2013-02-05 09:56:00,
2013-02-05 03:57:00,35.0,31.6,30.10,WNW,301,12.4,16.5,87,0.00,,,0.00,VWS V13.01,2013-02-05 09:57:00,
2013-02-05 03:58:00,35.3,31.9,30.10,NW,316,12.5,16.3,87,0.00,,,0.00,VWS V13.01,2013-02-05 09:58:00,
2013-02-05 03:59:00,24.3,23.8,29.95,NE,51,0.0,0.0,98,0.00,,,0.00,VWS V13.01,2013-02-05 09:59:00,
2013-02-05 04:00:00,35.1,31.6,30.10,NW,304,14.5,14.5,87,0.00,,,0.00,VWS V13.01,2013-02-05 10:00:00,
2013-02-05 04:01:00,35.4,31.8,30.10,NW,304,12.2,15.4,87,0.00,,,0.00,VWS V13.01,2013-02-05 10:01:00,
2013-02-05 04:02:00,35.3,31.6,30.10,WNW,302,18.3,18.3,86,0.00,,,0.00,VWS V13.01,2013-02-05 10:02:00,
2013-02-05 04:03:00,35.3,31.2,30.10,West,277,15.3,19.8,85,0.00,,,0.00,VWS V13.01,2013-02-05 10:03:00,
2013-02-05 04:04:00,24.2,23.7,29.95,NE,51,0.0,0.0,98,0.00,,,0.00,VWS V13.01,2013-02-05 10:04:00,
2013-02-05 04:05:00,35.2,31.2,30.10,NW,309,15.2,17.0,85,0.00,,,0.00,VWS V13.01,2013-02-05 10:05:00,
2013-02-05 04:06:00,35.3,31.0,30.10,NW,321,12.5,15.9,84,0.00,,,0.00,VWS V13.01,2013-02-05 10:06:00,
2013-02-05 04:07:00,35.2,31.0,30.10,NW,316,12.9,12.9,85,0.00,,,0.00,VWS V13.01,2013-02-05 10:07:00,
2013-02-05 04:08:00,35.3,31.1,30.10,NW,304,12.2,13.4,84,0.00,,,0.00,VWS V13.01,2013-02-05 10:08:00,
2013-02-05 04:09:00,24.6,24.1,29.95,NE,51,0.0,0.0,98,0.00,,,0.00,VWS V13.01,2013-02-05 10:09:00,
2013-02-05 04:10:00,35.3,31.0,30.10,NNW,328,11.4,13.5,84,0.00,,,0.00,VWS V13.01,2013-02-05 10:10:00,
2013-02-05 04:11:00,35.3,31.0,30.10,NW,309,11.8,12.2,84,0.00,,,0.00,VWS V13.01,2013-02-05 10:11:00,
2013-02-05 04:12:00,35.3,31.0,30.10,NW,319,11.6,12.3,84,0.00,,,0.00,VWS V13.01,2013-02-05 10:12:00,
2013-02-05 04:13:00,35.4,30.9,30.10,NW,321,10.3,11.2,84,0.00,,,0.00,VWS V13.01,2013-02-05 10:13:00,
2013-02-05 04:14:00,24.3,23.9,29.95,NE,51,0.0,0.0,98,0.00,,,0.00,VWS V13.01,2013-02-05 10:14:00,
2013-02-05 04:15:00,35.2,30.6,30.10,NNW,347,9.5,13.8,83,0.00,,,0.00,VWS V13.01,2013-02-05 10:15:00,
2013-02-05 04:16:00,35.3,30.7,30.10,NW,316,10.4,11.8,83,0.00,,,0.00,VWS V13.01,2013-02-05 10:16:00,
2013-02-05 04:17:00,35.3,30.7,30.11,NW,312,10.0,12.2,83,0.00,,,0.00,VWS V13.01,2013-02-05 10:17:00,
2013-02-05 04:18:00,35.3,30.8,30.11,NW,321,10.7,11.9,83,0.00,,,0.00,VWS V13.01,2013-02-05 10:18:00,
2013-02-05 04:19:00,25.1,24.7,29.96,NE,51,0.0,0.0,98,0.00,,,0.00,VWS V13.01,2013-02-05 10:19:00,
2013-02-05 04:20:00,35.5,30.9,30.11,NNW,333,11.9,14.2,83,0.00,,,0.00,VWS V13.01,2013-02-05 10:20:00,
2013-02-05 04:21:00,35.3,30.7,30.11,NW,309,13.4,14.5,83,0.00,,,0.00,VWS V13.01,2013-02-05 10:21:00,
2013-02-05 04:22:00,35.3,30.6,30.11,NW,305,9.9,10.3,83,0.00,,,0.00,VWS V13.01,2013-02-05 10:22:00,
2013-02-05 04:23:00,35.4,30.9,30.11,WNW,292,9.3,10.5,83,0.00,,,0.00,VWS V13.01,2013-02-05 10:23:00,
2013-02-05 04:24:00,24.7,24.3,29.96,SSW,204,6.2,6.2,98,0.00,,,0.00,VWS V13.01,2013-02-05 10:24:00,
2013-02-05 04:25:00,35.4,30.9,30.11,NW,307,13.3,13.3,83,0.00,,,0.00,VWS V13.01,2013-02-05 10:25:00,
2013-02-05 04:26:00,35.4,30.9,30.11,NW,314,13.0,13.0,83,0.00,,,0.00,VWS V13.01,2013-02-05 10:26:00,
2013-02-05 04:27:00,35.4,30.7,30.11,NW,311,10.3,11.9,83,0.00,,,0.00,VWS V13.01,2013-02-05 10:27:00,
2013-02-05 04:28:00,35.3,30.6,30.11,NW,307,9.3,10.1,83,0.00,,,0.00,VWS V13.01,2013-02-05 10:28:00,
2013-02-05 04:29:00,24.9,24.5,29.96,SSW,198,5.1,5.3,98,0.00,,,0.00,VWS V13.01,2013-02-05 10:29:00,
2013-02-05 04:30:00,35.4,30.6,30.11,NW,312,9.4,13.1,82,0.00,,,0.00,VWS V13.01,2013-02-05 10:30:00,
2013-02-05 04:31:00,35.3,30.5,30.11,NW,318,9.3,11.2,83,0.00,,,0.00,VWS V13.01,2013-02-05 10:31:00,
2013-02-05 04:32:00,35.5,30.6,30.11,NW,314,9.8,10.7,82,0.00,,,0.00,VWS V13.01,2013-02-05 10:32:00,
2013-02-05 04:33:00,35.4,30.6,30.11,NW,318,9.9,11.7,82,0.00,,,0.00,VWS V13.01,2013-02-05 10:33:00,
2013-02-05 04:34:00,25.0,24.6,29.96,South,179,0.0,0.0,98,0.00,,,0.00,VWS V13.01,2013-02-05 10:34:00,
2013-02-05 04:35:00,35.4,30.6,30.11,NW,308,8.4,9.3,83,0.00,,,0.00,VWS V13.01,2013-02-05 10:35:00,
2013-02-05 04:36:00,35.5,30.8,30.11,NW,307,8.3,10.4,83,0.00,,,0.00,VWS V13.01,2013-02-05 10:36:00,
2013-02-05 04:37:00,35.3,30.6,30.11,NW,321,7.5,9.6,83,0.00,,,0.00,VWS V13.01,2013-02-05 10:37:00,
2013-02-05 04:38:00,35.4,30.7,30.11,WNW,294,8.3,8.7,83,0.00,,,0.00,VWS V13.01,2013-02-05 10:38:00,
2013-02-05 04:39:00,25.2,24.8,29.96,South,179,0.0,0.0,98,0.00,,,0.00,VWS V13.01,2013-02-05 10:39:00,
2013-02-05 04:40:00,35.4,30.8,30.11,NW,318,8.5,8.6,83,0.00,,,0.00,VWS V13.01,2013-02-05 10:40:00,
2013-02-05 04:41:00,35.4,30.8,30.11,NW,309,6.4,9.5,83,0.00,,,0.00,VWS V13.01,2013-02-05 10:41:00,
2013-02-05 04:42:00,35.3,30.7,30.11,NW,321,8.0,8.5,83,0.00,,,0.00,VWS V13.01,2013-02-05 10:42:00,
2013-02-05 04:43:00,35.5,30.9,30.11,NW,311,8.0,9.3,83,0.00,,,0.00,VWS V13.01,2013-02-05 10:43:00,
2013-02-05 04:44:00,25.2,24.8,29.96,South,179,0.0,0.0,98,0.00,,,0.00,VWS V13.01,2013-02-05 10:44:00,
2013-02-05 04:45:00,35.5,30.8,30.11,NW,326,6.0,7.6,83,0.00,,,0.00,VWS V13.01,2013-02-05 10:45:00,
2013-02-05 04:46:00,35.5,30.7,30.11,NW,319,7.0,7.0,83,0.00,,,0.00,VWS V13.01,2013-02-05 10:46:00,
2013-02-05 04:47:00,35.4,30.7,30.11,NNW,347,5.7,6.0,83,0.00,,,0.00,VWS V13.01,2013-02-05 10:47:00,
2013-02-05 04:48:00,35.4,30.6,30.11,NNW,329,5.2,5.3,83,0.00,,,0.00,VWS V13.01,2013-02-05 10:48:00,
2013-02-05 04:49:00,25.0,24.6,29.96,South,179,0.0,0.0,98,0.00,,,0.00,VWS V13.01,2013-02-05 10:49:00,
2013-02-05 04:50:00,35.4,30.5,30.11,NNW,340,5.6,7.0,82,0.00,,,0.00,VWS V13.01,2013-02-05 10:50:00,
2013-02-05 04:51:00,35.3,30.5,30.11,WNW,297,2.0,4.8,83,0.00,,,0.00,VWS V13.01,2013-02-05 10:51:00,
2013-02-05 04:52:00,35.2,30.5,30.11,NW,325,5.5,7.6,83,0.00,,,0.00,VWS V13.01,2013-02-05 10:52:00,
2013-02-05 04:53:00,35.1,30.4,30.11,NW,323,5.4,5.7,83,0.00,,,0.00,VWS V13.01,2013-02-05 10:53:00,
2013-02-05 04:54:00,25.2,24.8,29.96,WSW,239,5.5,5.5,98,0.00,,,0.00,VWS V13.01,2013-02-05 10:54:00,
2013-02-05 04:55:00,35.2,30.6,30.11,NW,309,5.5,6.9,83,0.00,,,0.00,VWS V13.01,2013-02-05 10:55:00,
2013-02-05 04:56:00,35.1,30.6,30.11,NW,319,2.0,5.5,83,0.00,,,0.00,VWS V13.01,2013-02-05 10:56:00,
2013-02-05 04:57:00,35.3,30.8,30.11,NW,323,5.2,6.3,83,0.00,,,0.00,VWS V13.01,2013-02-05 10:57:00,
2013-02-05 04:58:00,35.0,30.5,30.12,NNW,330,4.3,5.1,83,0.00,,,0.00,VWS V13.01,2013-02-05 10:58:00,
2013-02-05 04:59:00,25.0,24.6,29.96,WSW,239,5.9,6.3,98,0.00,,,0.00,VWS V13.01,2013-02-05 10:59:00,
2013-02-05 05:00:00,35.3,30.8,30.11,NW,319,2.0,4.9,83,0.00,,,0.00,VWS V13.01,2013-02-05 11:00:00,
2013-02-05 05:01:00,35.1,30.5,30.11,NNW,340,6.9,7.0,83,0.00,,,0.00,VWS V13.01,2013-02-05 11:01:00,
2013-02-05 05:02:00,35.3,30.6,30.11,NNW,332,5.8,6.6,83,0.00,,,0.00,VWS V13.01,2013-02-05 11:02:00,
2013-02-05 05:03:00,35.2,30.5,30.11,NNW,332,5.7,6.6,83,0.00,,,0.00,VWS V13.01,2013-02-05 11:03:00,
2013-02-05 05:04:00,24.7,24.3,29.95,SW,236,4.8,5.6,98,0.00,,,0.00,VWS V13.01,2013-02-05 11:04:00,
2013-02-05 05:05:00,35.1,30.5,30.11,NW,323,5.8,5.8,83,0.00,,,0.00,VWS V13.01,2013-02-05 11:05:00,
2013-02-05 05:06:00,34.8,30.2,30.12,NW,316,2.0,5.6,83,0.00,,,0.00,VWS V13.01,2013-02-05 11:06:00,
2013-02-05 05:07:00,35.1,30.5,30.12,North,349,2.2,4.3,83,0.00,,,0.00,VWS V13.01,2013-02-05 11:07:00,
2013-02-05 05:08:00,35.2,30.6,30.12,NW,316,5.6,5.6,83,0.00,,,0.00,VWS V13.01,2013-02-05 11:08:00,
2013-02-05 05:09:00,24.9,24.5,29.95,SW,219,5.8,5.9,98,0.00,,,0.00,VWS V13.01,2013-02-05 11:09:00,
2013-02-05 05:10:00,35.0,30.5,30.12,NW,319,4.7,5.8,83,0.00,,,0.00,VWS V13.01,2013-02-05 11:10:00,
2013-02-05 05:11:00,34.9,30.4,30.12,NW,323,5.0,6.4,83,0.00,,,0.00,VWS V13.01,2013-02-05 11:11:00,
2013-02-05 05:12:00,34.8,30.3,30.12,NNW,329,5.5,6.5,83,0.00,,,0.00,VWS V13.01,2013-02-05 11:12:00,
2013-02-05 05:13:00,34.8,30.3,30.12,NNW,328,4.8,6.5,83,0.00,,,0.00,VWS V13.01,2013-02-05 11:13:00,
2013-02-05 05:14:00,25.0,24.6,29.95,SSW,208,5.8,5.8,98,0.00,,,0.00,VWS V13.01,2013-02-05 11:14:00,
2013-02-05 05:15:00,34.9,30.5,30.12,WNW,298,4.7,5.3,84,0.00,,,0.00,VWS V13.01,2013-02-05 11:15:00,
2013-02-05 05:16:00,34.6,30.2,30.12,NW,314,4.8,5.0,84,0.00,,,0.00,VWS V13.01,2013-02-05 11:16:00,
2013-02-05 05:17:00,34.8,30.4,30.12,NW,305,4.8,4.9,84,0.00,,,0.00,VWS V13.01,2013-02-05 11:17:00,
2013-02-05 05:18:00,34.8,30.4,30.12,NW,315,5.6,5.8,84,0.00,,,0.00,VWS V13.01,2013-02-05 11:18:00,
2013-02-05 05:19:00,25.2,24.8,29.95,SW,214,6.3,7.1,98,0.00,,,0.00,VWS V13.01,2013-02-05 11:19:00,
2013-02-05 05:20:00,34.8,30.5,30.12,NW,314,4.4,5.7,84,0.00,,,0.00,VWS V13.01,2013-02-05 11:20:00,
2013-02-05 05:21:00,34.7,30.4,30.12,NW,304,5.3,5.3,84,0.00,,,0.00,VWS V13.01,2013-02-05 11:21:00,
2013-02-05 05:22:00,34.7,30.4,30.12,NW,304,6.0,6.2,84,0.00,,,0.00,VWS V13.01,2013-02-05 11:22:00,
2013-02-05 05:23:00,34.3,30.1,30.13,WNW,302,7.8,7.8,84,0.00,,,0.00,VWS V13.01,2013-02-05 11:23:00,
2013-02-05 05:24:00,24.8,24.4,29.95,SW,221,5.7,6.6,98,0.00,,,0.00,VWS V13.01,2013-02-05 11:24:00,
2013-02-05 05:25:00,34.3,30.0,30.13,NW,304,5.9,7.3,84,0.00,,,0.00,VWS V13.01,2013-02-05 11:25:00,
2013-02-05 05:26:00,34.2,30.0,30.13,WNW,301,7.5,7.9,84,0.00,,,0.00,VWS V13.01,2013-02-05 11:26:00,
2013-02-05 05:27:00,34.5,30.3,30.13,NW,305,10.4,10.8,84,0.00,,,0.00,VWS V13.01,2013-02-05 11:27:00,
2013-02-05 05:28:00,33.9,29.6,30.13,NW,322,8.5,11.9,84,0.00,,,0.00,VWS V13.01,2013-02-05 11:28:00,
2013-02-05 05:29:00,24.8,24.4,29.95,South,173,2.0,6.3,98,0.00,,,0.00,VWS V13.01,2013-02-05 11:29:00,
2013-02-05 05:30:00,33.9,29.6,30.13,NW,307,8.7,9.4,84,0.00,,,0.00,VWS V13.01,2013-02-05 11:30:00,
2013-02-05 05:31:00,33.8,29.4,30.13,NW,321,9.8,11.2,84,0.00,,,0.00,VWS V13.01,2013-02-05 11:31:00,
2013-02-05 05:32:00,34.0,29.7,30.13,NW,304,10.1,10.1,84,0.00,,,0.00,VWS V13.01,2013-02-05 11:32:00,
2013-02-05 05:33:00,33.7,29.4,30.13,NW,307,7.8,9.2,84,0.00,,,0.00,VWS V13.01,2013-02-05 11:33:00,
2013-02-05 05:34:00,24.9,24.5,29.94,SW,224,4.9,5.5,98,0.00,,,0.00,VWS V13.01,2013-02-05 11:34:00,
2013-02-05 05:35:00,33.8,29.4,30.13,NNW,336,7.1,10.7,84,0.00,,,0.00,VWS V13.01,2013-02-05 11:35:00,
2013-02-05 05:36:00,33.6,29.3,30.13,NW,312,9.7,11.1,84,0.00,,,0.00,VWS V13.01,2013-02-05 11:36:00,
2013-02-05 05:37:00,33.6,29.3,30.13,NW,318,8.6,8.9,84,0.00,,,0.00,VWS V13.01,2013-02-05 11:37:00,
2013-02-05 05:38:00,33.6,29.3,30.13,WNW,302,8.0,10.4,84,0.00,,,0.00,VWS V13.01,2013-02-05 11:38:00,
2013-02-05 05:39:00,25.0,24.6,29.94,SW,215,0.0,0.0,98,0.00,,,0.00,VWS V13.01,2013-02-05 11:39:00,
2013-02-05 05:40:00,33.7,29.5,30.13,NW,309,8.5,8.5,84,0.00,,,0.00,VWS V13.01,2013-02-05 11:40:00,
2013-02-05 05:41:00,33.6,29.4,30.13,NW,321,8.2,8.6,84,0.00,,,0.00,VWS V13.01,2013-02-05 11:41:00,
2013-02-05 05:42:00,33.6,29.4,30.13,NW,315,7.5,8.6,84,0.00,,,0.00,VWS V13.01,2013-02-05 11:42:00,
2013-02-05 05:43:00,33.5,29.3,30.13,NW,308,8.8,8.8,84,0.00,,,0.00,VWS V13.01,2013-02-05 11:43:00,
2013-02-05 05:44:00,24.9,24.5,29.94,SW,215,0.0,0.0,98,0.00,,,0.00,VWS V13.01,2013-02-05 11:44:00,
2013-02-05 05:45:00,33.4,29.2,30.13,NNW,330,8.8,9.4,84,0.00,,,0.00,VWS V13.01,2013-02-05 11:45:00,
2013-02-05 05:49:00,25.0,24.6,29.94,SSW,201,4.5,6.0,98,0.00,,,0.00,VWS V13.01,2013-02-05 11:49:00,
2013-02-05 05:54:00,25.2,24.8,29.94,SSW,193,5.2,5.2,98,0.00,,,0.00,VWS V13.01,2013-02-05 11:54:00,
2013-02-05 05:59:00,25.4,25.0,29.94,SSW,201,6.0,6.0,98,0.00,,,0.00,VWS V13.01,2013-02-05 11:59:00,
2013-02-05 06:04:00,25.1,24.7,29.95,SW,236,5.8,6.5,98,0.00,,,0.00,VWS V13.01,2013-02-05 12:04:00,
2013-02-05 06:09:00,25.5,25.2,29.95,WSW,252,5.6,7.1,99,0.00,,,0.00,VWS V13.01,2013-02-05 12:09:00,
2013-02-05 06:14:00,25.4,25.0,29.95,WSW,238,7.4,7.7,98,0.00,,,0.00,VWS V13.01,2013-02-05 12:14:00,
2013-02-05 06:19:00,25.6,25.2,29.95,SW,231,7.5,8.1,98,0.00,,,0.00,VWS V13.01,2013-02-05 12:19:00,
2013-02-05 06:24:00,25.7,25.3,29.94,SSW,211,6.6,8.4,98,0.00,,,0.00,VWS V13.01,2013-02-05 12:24:00,
2013-02-05 06:29:00,25.8,25.5,29.93,SSW,198,7.6,8.3,99,0.00,,,0.00,VWS V13.01,2013-02-05 12:29:00,
2013-02-05 06:34:00,25.7,25.4,29.93,SSW,194,9.1,10.1,99,0.00,,,0.00,VWS V13.01,2013-02-05 12:34:00,
2013-02-05 06:39:00,25.9,25.5,29.93,South,184,7.9,7.9,98,0.00,,,0.00,VWS V13.01,2013-02-05 12:39:00,
2013-02-05 06:44:00,25.7,25.3,29.93,SSW,194,10.3,10.7,98,0.00,,,0.00,VWS V13.01,2013-02-05 12:44:00,
2013-02-05 06:49:00,25.4,25.0,29.93,SW,214,10.8,10.8,98,0.00,,,0.00,VWS V13.01,2013-02-05 12:49:00,
2013-02-05 06:54:00,25.5,25.1,29.93,SSW,202,11.1,11.5,98,0.00,,,0.00,VWS V13.01,2013-02-05 12:54:00,
2013-02-05 06:59:00,25.5,25.1,29.93,SSW,208,10.4,10.8,98,0.00,,,0.00,VWS V13.01,2013-02-05 12:59:00,
2013-02-05 07:04:00,25.5,25.1,29.94,SSW,212,9.9,11.3,98,0.00,,,0.00,VWS V13.01,2013-02-05 13:04:00,
2013-02-05 07:09:00,25.9,25.6,29.94,SSW,207,8.9,12.2,99,0.00,,,0.00,VWS V13.01,2013-02-05 13:09:00,
2013-02-05 07:14:00,25.9,25.6,29.94,SW,225,11.4,11.4,99,0.00,,,0.00,VWS V13.01,2013-02-05 13:14:00,
2013-02-05 07:19:00,25.7,25.4,29.95,SW,222,8.4,11.6,99,0.00,,,0.00,VWS V13.01,2013-02-05 13:19:00,
2013-02-05 07:24:00,26.0,25.7,29.95,SW,235,8.5,9.2,99,0.00,,,0.00,VWS V13.01,2013-02-05 13:24:00,
2013-02-05 07:29:00,25.9,25.6,29.95,SW,231,10.6,11.6,99,0.00,,,0.00,VWS V13.01,2013-02-05 13:29:00,
2013-02-05 07:34:00,25.9,25.5,29.95,WSW,243,8.8,8.8,98,0.00,,,0.00,VWS V13.01,2013-02-05 13:34:00,
2013-02-05 07:39:00,25.9,25.5,29.94,SW,221,8.4,9.5,98,0.00,,,0.00,VWS V13.01,2013-02-05 13:39:00,
2013-02-05 07:44:00,25.9,25.5,29.94,SSW,208,7.6,9.6,98,0.00,,,0.00,VWS V13.01,2013-02-05 13:44:00,
2013-02-05 07:49:00,26.3,26.0,29.94,SW,215,9.8,10.7,99,0.00,,,0.00,VWS V13.01,2013-02-05 13:49:00,
2013-02-05 07:54:00,26.2,25.8,29.94,South,176,7.0,7.6,98,0.00,,,0.00,VWS V13.01,2013-02-05 13:54:00,
2013-02-05 07:59:00,26.3,25.9,29.94,SSW,210,8.6,8.7,98,0.00,,,0.00,VWS V13.01,2013-02-05 13:59:00,
2013-02-05 08:04:00,26.4,26.0,29.94,SSW,208,9.8,10.3,98,0.00,,,0.00,VWS V13.01,2013-02-05 14:04:00,
2013-02-05 08:09:00,26.6,26.3,29.95,SSW,197,8.7,9.7,99,0.00,,,0.00,VWS V13.01,2013-02-05 14:09:00,
2013-02-05 08:14:00,26.6,26.2,29.94,SSW,201,10.6,10.6,98,0.00,,,0.00,VWS V13.01,2013-02-05 14:14:00,
2013-02-05 08:19:00,26.8,26.4,29.94,SW,222,6.8,10.1,98,0.00,,,0.00,VWS V13.01,2013-02-05 14:19:00,
2013-02-05 08:24:00,27.1,26.7,29.94,SW,214,11.7,11.7,98,0.00,,,0.00,VWS V13.01,2013-02-05 14:24:00,
2013-02-05 08:29:00,26.8,26.4,29.94,SSW,202,12.0,13.2,98,0.00,,,0.00,VWS V13.01,2013-02-05 14:29:00,
2013-02-05 08:34:00,27.0,26.7,29.93,SSW,208,12.2,13.2,99,0.00,,,0.00,VWS V13.01,2013-02-05 14:34:00,
2013-02-05 08:39:00,27.1,26.6,29.93,SSW,205,14.5,15.2,98,0.00,,,0.00,VWS V13.01,2013-02-05 14:39:00,
2013-02-05 08:44:00,27.0,26.5,29.93,SW,214,10.3,13.2,98,0.00,,,0.00,VWS V13.01,2013-02-05 14:44:00,
2013-02-05 08:49:00,27.4,27.1,29.93,SW,221,14.3,15.9,99,0.00,,,0.00,VWS V13.01,2013-02-05 14:49:00,
2013-02-05 08:54:00,28.0,27.6,29.92,SSW,201,14.9,16.8,98,0.00,,,0.00,VWS V13.01,2013-02-05 14:54:00,
2013-02-05 08:59:00,28.4,27.8,29.92,SSW,207,14.4,17.5,97,0.00,,,0.00,VWS V13.01,2013-02-05 14:59:00,
2013-02-05 09:04:00,28.2,27.6,29.92,SSW,208,17.0,18.1,98,0.00,,,0.00,VWS V13.01,2013-02-05 15:04:00,
2013-02-05 09:09:00,28.3,27.7,29.92,SSW,194,16.3,18.0,98,0.00,,,0.00,VWS V13.01,2013-02-05 15:09:00,
2013-02-05 09:14:00,28.4,27.8,29.92,SSW,211,11.2,12.7,98,0.00,,,0.00,VWS V13.01,2013-02-05 15:14:00,
2013-02-05 09:19:00,28.8,28.3,29.92,SSW,211,14.6,14.6,98,0.00,,,0.00,VWS V13.01,2013-02-05 15:19:00,
2013-02-05 09:24:00,28.7,28.1,29.92,SW,217,12.1,17.5,97,0.00,,,0.00,VWS V13.01,2013-02-05 15:24:00,
2013-02-05 09:29:00,28.9,28.4,29.92,SW,215,8.7,14.0,98,0.00,,,0.00,VWS V13.01,2013-02-05 15:29:00,
2013-02-05 09:34:00,29.0,28.5,29.92,SSW,198,15.9,16.8,98,0.00,,,0.00,VWS V13.01,2013-02-05 15:34:00,
2013-02-05 09:39:00,29.1,28.5,29.92,SSW,204,15.3,17.1,98,0.00,,,0.00,VWS V13.01,2013-02-05 15:39:00,
2013-02-05 09:44:00,29.4,28.7,29.92,WSW,239,14.9,19.2,97,0.00,,,0.00,VWS V13.01,2013-02-05 15:44:00,
2013-02-05 09:49:00,29.5,28.8,29.92,SW,219,19.7,19.7,97,0.00,,,0.00,VWS V13.01,2013-02-05 15:49:00,
2013-02-05 09:54:00,29.6,28.9,29.92,SW,229,12.9,13.9,97,0.00,,,0.00,VWS V13.01,2013-02-05 15:54:00,
2013-02-05 09:59:00,29.8,29.0,29.92,SW,232,11.5,13.8,97,0.00,,,0.00,VWS V13.01,2013-02-05 15:59:00,
2013-02-05 10:04:00,30.2,29.5,29.92,SW,217,14.1,14.1,97,0.00,,,0.00,VWS V13.01,2013-02-05 16:04:00,
2013-02-05 10:09:00,30.8,29.7,29.92,SSW,201,13.9,15.4,96,0.00,,,0.00,VWS V13.01,2013-02-05 16:09:00,
2013-02-05 10:14:00,31.2,29.9,29.92,SW,219,15.1,16.6,95,0.00,,,0.00,VWS V13.01,2013-02-05 16:14:00,
2013-02-05 10:19:00,31.8,30.5,29.92,SW,228,15.8,15.8,95,0.00,,,0.00,VWS V13.01,2013-02-05 16:19:00,
2013-02-05 10:24:00,32.4,30.0,29.92,WSW,248,10.1,17.8,91,0.00,,,0.00,VWS V13.01,2013-02-05 16:24:00,
2013-02-05 10:29:00,32.6,30.1,29.92,SW,231,14.1,16.2,90,0.00,,,0.00,VWS V13.01,2013-02-05 16:29:00,
2013-02-05 10:34:00,32.5,29.9,29.92,WSW,239,15.5,17.7,90,0.00,,,0.00,VWS V13.01,2013-02-05 16:34:00,
2013-02-05 10:39:00,32.7,30.4,29.92,SW,233,15.2,16.1,91,0.00,,,0.00,VWS V13.01,2013-02-05 16:39:00,
2013-02-05 10:44:00,33.3,30.2,29.92,SW,224,15.7,18.2,88,0.00,,,0.00,VWS V13.01,2013-02-05 16:44:00,
2013-02-05 10:49:00,33.6,30.0,29.91,SW,233,17.9,19.9,87,0.00,,,0.00,VWS V13.01,2013-02-05 16:49:00,
2013-02-05 10:54:00,33.7,30.0,29.91,WSW,242,14.2,17.8,86,0.00,,,0.00,VWS V13.01,2013-02-05 16:54:00,
2013-02-05 10:59:00,33.8,29.7,29.91,WSW,239,16.2,21.9,85,0.00,,,0.00,VWS V13.01,2013-02-05 16:59:00,
2013-02-05 11:04:00,34.0,30.2,29.91,West,260,11.9,18.0,86,0.00,,,0.00,VWS V13.01,2013-02-05 17:04:00,
2013-02-05 11:09:00,34.2,30.5,29.90,SW,217,18.3,19.1,86,0.00,,,0.00,VWS V13.01,2013-02-05 17:09:00,
2013-02-05 11:14:00,34.6,30.6,29.90,SW,235,12.4,14.6,85,0.00,,,0.00,VWS V13.01,2013-02-05 17:14:00,
2013-02-05 11:19:00,35.0,31.2,29.90,SW,225,9.4,15.0,86,0.00,,,0.00,VWS V13.01,2013-02-05 17:19:00,
2013-02-05 11:24:00,35.4,30.5,29.90,SW,232,17.1,20.4,82,0.00,,,0.00,VWS V13.01,2013-02-05 17:24:00,
2013-02-05 11:29:00,35.3,31.2,29.90,WSW,249,12.1,19.8,85,0.00,,,0.00,VWS V13.01,2013-02-05 17:29:00,
2013-02-05 11:34:00,35.4,31.1,29.90,WSW,238,19.4,19.4,84,0.00,,,0.00,VWS V13.01,2013-02-05 17:34:00,
2013-02-05 11:39:00,35.3,30.1,29.89,WSW,249,15.0,23.7,81,0.00,,,0.00,VWS V13.01,2013-02-05 17:39:00,
2013-02-05 11:44:00,35.3,30.1,29.89,WSW,253,12.4,17.6,81,0.00,,,0.00,VWS V13.01,2013-02-05 17:44:00,
2013-02-05 11:49:00,35.5,31.0,29.89,West,259,10.4,17.0,84,0.00,,,0.00,VWS V13.01,2013-02-05 17:49:00,
2013-02-05 11:54:00,36.3,31.3,29.88,West,267,10.9,14.2,82,0.00,,,0.00,VWS V13.01,2013-02-05 17:54:00,
2013-02-05 11:59:00,36.5,31.1,29.88,SW,228,13.8,18.9,81,0.00,,,0.00,VWS V13.01,2013-02-05 17:59:00,
2013-02-05 12:04:00,37.1,31.0,29.87,SW,225,16.8,17.1,78,0.00,,,0.00,VWS V13.01,2013-02-05 18:04:00,
2013-02-05 12:09:00,37.2,30.8,29.87,WSW,243,14.7,18.3,77,0.00,,,0.00,VWS V13.01,2013-02-05 18:09:00,
2013-02-05 12:14:00,37.2,30.6,29.87,WSW,257,14.2,16.3,77,0.00,,,0.00,VWS V13.01,2013-02-05 18:14:00,
2013-02-05 12:19:00,37.4,31.4,29.87,West,266,15.7,18.3,79,0.00,,,0.00,VWS V13.01,2013-02-05 18:19:00,
2013-02-05 12:24:00,37.6,30.8,29.87,West,267,14.7,19.2,76,0.00,,,0.00,VWS V13.01,2013-02-05 18:24:00,
2013-02-05 12:29:00,37.7,30.9,29.87,WSW,243,14.5,19.7,76,0.00,,,0.00,VWS V13.01,2013-02-05 18:29:00,
2013-02-05 12:34:00,38.0,31.5,29.87,West,262,12.2,16.0,77,0.00,,,0.00,VWS V13.01,2013-02-05 18:34:00,
2013-02-05 12:39:00,38.4,31.3,29.88,West,274,13.8,16.8,75,0.00,,,0.00,VWS V13.01,2013-02-05 18:39:00,
2013-02-05 12:44:00,38.2,31.3,29.87,WSW,255,9.4,17.5,76,0.00,,,0.00,VWS V13.01,2013-02-05 18:44:00,
2013-02-05 12:49:00,38.5,31.6,29.87,West,280,14.7,20.7,76,0.00,,,0.00,VWS V13.01,2013-02-05 18:49:00,
2013-02-05 12:54:00,38.5,31.6,29.87,West,271,15.0,19.3,76,0.00,,,0.00,VWS V13.01,2013-02-05 18:54:00,
2013-02-05 12:59:00,38.5,31.0,29.87,WSW,249,21.0,22.5,74,0.00,,,0.00,VWS V13.01,2013-02-05 18:59:00,
2013-02-05 13:04:00,38.9,30.9,29.87,WSW,239,13.5,15.8,73,0.00,,,0.00,VWS V13.01,2013-02-05 19:04:00,
2013-02-05 13:09:00,39.7,32.8,29.87,West,278,13.6,16.0,76,0.00,,,0.00,VWS V13.01,2013-02-05 19:09:00,
2013-02-05 13:14:00,39.4,31.0,29.87,West,271,13.7,20.4,72,0.00,,,0.00,VWS V13.01,2013-02-05 19:14:00,
2013-02-05 13:19:00,39.0,31.7,29.87,West,274,17.9,19.0,75,0.00,,,0.00,VWS V13.01,2013-02-05 19:19:00,
2013-02-05 13:24:00,38.8,32.0,29.88,West,267,16.6,21.1,76,0.00,,,0.00,VWS V13.01,2013-02-05 19:24:00,
2013-02-05 13:29:00,39.4,32.5,29.88,West,266,10.4,16.3,76,0.00,,,0.00,VWS V13.01,2013-02-05 19:29:00,
2013-02-05 13:34:00,40.2,32.7,29.88,West,269,21.8,21.8,74,0.00,,,0.00,VWS V13.01,2013-02-05 19:34:00,
2013-02-05 13:39:00,40.3,31.6,29.87,West,277,10.9,16.5,71,0.00,,,0.00,VWS V13.01,2013-02-05 19:39:00,
2013-02-05 13:44:00,40.3,31.4,29.88,WSW,250,17.1,20.9,70,0.00,,,0.00,VWS V13.01,2013-02-05 19:44:00,
2013-02-05 13:49:00,40.6,31.9,29.88,West,269,13.2,18.4,71,0.00,,,0.00,VWS V13.01,2013-02-05 19:49:00,
2013-02-05 13:54:00,40.0,33.1,29.88,West,277,17.8,19.3,76,0.00,,,0.00,VWS V13.01,2013-02-05 19:54:00,
2013-02-05 13:59:00,40.4,32.0,29.88,West,278,11.7,17.5,72,0.00,,,0.00,VWS V13.01,2013-02-05 19:59:00,
2013-02-05 14:04:00,40.8,32.6,29.88,West,266,20.8,20.8,72,0.00,,,0.00,VWS V13.01,2013-02-05 20:04:00,
2013-02-05 14:09:00,40.6,33.0,29.88,WNW,284,12.4,16.0,74,0.00,,,0.00,VWS V13.01,2013-02-05 20:09:00,
2013-02-05 14:14:00,40.4,33.0,29.88,West,276,17.3,17.3,74,0.00,,,0.00,VWS V13.01,2013-02-05 20:14:00,
2013-02-05 14:19:00,41.1,34.2,29.88,West,262,17.7,17.7,76,0.00,,,0.00,VWS V13.01,2013-02-05 20:19:00,
2013-02-05 14:24:00,40.9,33.3,29.88,WNW,288,15.2,15.2,74,0.00,,,0.00,VWS V13.01,2013-02-05 20:24:00,
2013-02-05 14:29:00,40.9,33.3,29.88,West,281,15.8,19.6,74,0.00,,,0.00,VWS V13.01,2013-02-05 20:29:00,
2013-02-05 14:34:00,41.0,33.0,29.89,WNW,287,21.1,21.1,73,0.00,,,0.00,VWS V13.01,2013-02-05 20:34:00,
2013-02-05 14:39:00,40.7,32.8,29.89,WNW,288,17.2,19.2,73,0.00,,,0.00,VWS V13.01,2013-02-05 20:39:00,
2013-02-05 14:44:00,41.0,33.7,29.89,WNW,284,16.0,19.0,75,0.00,,,0.00,VWS V13.01,2013-02-05 20:44:00,
2013-02-05 14:49:00,41.1,33.7,29.90,WNW,287,21.4,22.1,75,0.00,,,0.00,VWS V13.01,2013-02-05 20:49:00,
2013-02-05 14:53:00,41.1,33.6,29.90,West,281,12.8,20.1,74,0.00,,,0.00,VWS V13.01,2013-02-05 20:53:00,
2013-02-05 14:58:00,41.1,34.1,29.90,WNW,290,18.8,20.4,76,0.00,,,0.00,VWS V13.01,2013-02-05 20:58:00,
2013-02-05 15:03:00,41.4,33.4,29.90,WSW,256,25.1,27.0,73,0.00,,,0.00,VWS V13.01,2013-02-05 21:03:00,
2013-02-05 15:08:00,40.9,32.4,29.91,WNW,295,25.0,29.7,72,0.00,,,0.00,VWS V13.01,2013-02-05 21:08:00,
2013-02-05 15:13:00,40.6,33.1,29.91,West,277,23.1,27.3,74,0.00,,,0.00,VWS V13.01,2013-02-05 21:13:00,
2013-02-05 15:18:00,40.4,33.6,29.92,West,267,18.0,22.4,76,0.00,,,0.00,VWS V13.01,2013-02-05 21:18:00,
2013-02-05 15:23:00,40.3,33.4,29.92,WNW,285,22.9,24.4,76,0.00,,,0.00,VWS V13.01,2013-02-05 21:23:00,
2013-02-05 15:28:00,40.1,33.4,29.92,West,281,18.6,20.4,77,0.00,,,0.00,VWS V13.01,2013-02-05 21:28:00,
2013-02-05 15:33:00,40.0,33.2,29.92,WNW,283,17.4,19.3,76,0.00,,,0.00,VWS V13.01,2013-02-05 21:33:00,
2013-02-05 15:38:00,39.8,33.3,29.92,WNW,297,15.3,18.8,78,0.00,,,0.00,VWS V13.01,2013-02-05 21:38:00,
2013-02-05 15:43:00,40.0,33.3,29.93,WNW,298,17.3,19.8,77,0.00,,,0.00,VWS V13.01,2013-02-05 21:43:00,
2013-02-05 15:48:00,39.6,32.7,29.93,NW,312,20.7,21.3,76,0.00,,,0.00,VWS V13.01,2013-02-05 21:48:00,
2013-02-05 15:53:00,39.6,32.7,29.93,WNW,300,21.3,21.8,76,0.00,,,0.00,VWS V13.01,2013-02-05 21:53:00,
2013-02-05 15:58:00,39.8,33.0,29.94,WNW,287,16.2,17.8,76,0.00,,,0.00,VWS V13.01,2013-02-05 21:58:00,
2013-02-05 16:03:00,39.3,32.6,29.94,West,276,16.2,23.5,77,0.00,,,0.00,VWS V13.01,2013-02-05 22:03:00,
2013-02-05 16:08:00,39.3,32.7,29.94,NW,311,14.7,18.3,77,0.00,,,0.00,VWS V13.01,2013-02-05 22:08:00,
2013-02-05 16:13:00,39.1,32.4,29.94,WNW,290,17.8,22.1,77,0.00,,,0.00,VWS V13.01,2013-02-05 22:13:00,
2013-02-05 16:18:00,39.4,33.1,29.95,WNW,295,15.3,18.6,78,0.00,,,0.00,VWS V13.01,2013-02-05 22:18:00,
2013-02-05 16:23:00,39.0,33.1,29.95,WNW,295,13.2,19.1,79,0.00,,,0.00,VWS V13.01,2013-02-05 22:23:00,
2013-02-05 16:28:00,39.0,33.5,29.95,NW,312,15.5,21.0,80,0.00,,,0.00,VWS V13.01,2013-02-05 22:28:00,
2013-02-05 16:33:00,38.8,33.0,29.95,NW,311,15.7,24.7,80,0.00,,,0.00,VWS V13.01,2013-02-05 22:33:00,
2013-02-05 16:38:00,38.3,32.7,29.95,WNW,284,18.6,25.5,80,0.00,,,0.00,VWS V13.01,2013-02-05 22:38:00,
2013-02-05 16:43:00,38.2,32.7,29.95,WNW,300,24.6,25.7,80,0.00,,,0.00,VWS V13.01,2013-02-05 22:43:00,
2013-02-05 16:48:00,38.1,32.8,29.95,WNW,295,15.6,22.6,81,0.00,,,0.00,VWS V13.01,2013-02-05 22:48:00,
2013-02-05 16:53:00,37.8,32.6,29.96,WNW,302,20.4,21.7,81,0.00,,,0.00,VWS V13.01,2013-02-05 22:53:00,
2013-02-05 16:58:00,37.5,32.6,29.96,NW,304,20.0,20.1,82,0.00,,,0.00,VWS V13.01,2013-02-05 22:58:00,
2013-02-05 17:03:00,37.3,32.7,29.96,NW,311,16.7,18.7,83,0.00,,,0.00,VWS V13.01,2013-02-05 23:03:00,
2013-02-05 17:08:00,36.9,32.5,29.96,WNW,300,15.3,18.8,84,0.00,,,0.00,VWS V13.01,2013-02-05 23:08:00,
2013-02-05 17:13:00,36.9,32.7,29.97,NW,312,16.0,19.6,84,0.00,,,0.00,VWS V13.01,2013-02-05 23:13:00,
2013-02-05 17:18:00,36.6,32.5,29.97,NW,309,16.2,17.1,85,0.00,,,0.00,VWS V13.01,2013-02-05 23:18:00,
2013-02-05 17:23:00,36.2,32.4,29.97,NW,312,14.3,17.1,86,0.00,,,0.00,VWS V13.01,2013-02-05 23:23:00,
2013-02-05 17:28:00,35.8,32.0,29.98,NW,323,12.9,16.7,86,0.00,,,0.00,VWS V13.01,2013-02-05 23:28:00,
2013-02-05 17:33:00,35.8,32.4,29.98,NW,322,12.9,15.7,87,0.00,,,0.00,VWS V13.01,2013-02-05 23:33:00,
2013-02-05 17:38:00,35.6,32.4,29.99,NW,325,16.8,17.8,88,0.00,,,0.00,VWS V13.01,2013-02-05 23:38:00,
2013-02-05 17:43:00,35.9,32.8,29.99,NW,315,19.1,21.7,88,0.00,,,0.00,VWS V13.01,2013-02-05 23:43:00,
2013-02-05 17:48:00,36.0,33.2,29.99,NW,319,19.2,19.2,89,0.00,,,0.00,VWS V13.01,2013-02-05 23:48:00,
2013-02-05 17:53:00,36.3,33.2,30.00,NW,309,13.4,14.5,88,0.00,,,0.00,VWS V13.01,2013-02-05 23:53:00,
2013-02-05 17:58:00,36.6,33.2,30.00,NW,307,14.1,16.2,87,0.00,,,0.00,VWS V13.01,2013-02-05 23:58:00,
2013-02-05 18:03:00,36.6,33.2,30.00,NW,309,14.5,17.0,87,0.00,,,0.00,VWS V13.01,2013-02-06 00:03:00,
2013-02-05 18:08:00,36.3,32.6,30.01,NW,309,15.4,21.6,86,0.00,,,0.00,VWS V13.01,2013-02-06 00:08:00,
2013-02-05 18:13:00,36.4,32.8,30.01,NW,316,14.9,20.6,87,0.00,,,0.00,VWS V13.01,2013-02-06 00:13:00,
2013-02-05 23:59:00,33.4,29.3,30.13,NW,319,7.4,8.5,85,0.00,,,0.00,VWS V13.01,2013-02-06 05:59:00,